オークランド の空港の天気 - METARとTAF

オークランド国際空港 ( NZAA / AKL ) - ニュージーランド オークランド|オークランド
飛行場実況気象(Metar)
観測時間02/18 03:30 NZDT (02/17 14:30 UTC)
風向・風速北 1m/s
視程10km以上
天気現象
少しの雲 雲底高度 850m
全天の4割程度の雲 雲底高度 1040m
気温17℃
湿度100%
気圧1015hPa
METARNZAA 171430Z AUTO 01002KT 9999 FEW028/// SCT034/// 17/17 Q1015 NOSIG
過去の天気等 Google飛行場航空写真 Wunderground天気予報

過去48時間のMETAR

飛行場予報(TAF)
発表時間: 2/18 00:02 NZDT (2/17 11:02 UTC)
予報対象時間: 18日1時 NZDT ~ 19日1時 NZDT
風向・風速北北西 3m/s
視程10km以上
全天の4割程度の雲 雲底高度 910m
18日12時 NZDT から
風向・風速南西 5m/s
視程10km以上
天気現象弱いしゅう雨
全天の8割程度の雲 雲底高度 910m
18日21時 NZDT から
風向・風速不定 1m/s
視程10km以上
少しの雲 雲底高度 910m
TAF NZAA 171102Z 1712/1812 33005KT 9999 SCT030
FM172300 22010KT 9999 -SHRA BKN030
FM180800 VRB02KT 9999 FEW030